<?xml version="1.0" encoding="UTF-8" standalone="no" ?>
<gpx xmlns="http://www.topografix.com/GPX/1/1" xmlns:xsi="http://www.w3.org/2001/XMLSchema-instance" xsi:schemaLocation="http://www.topografix.com/GPX/1/1 http://www.topografix.com/GPX/1/1/gpx.xsd" version="1.1" creator="VisuGPX - https://www.visugpx.com">
  <metadata>
    <name>Chateau Laval - Gréoux - St Martin de Brômes G1</name>
    <desc><![CDATA[base OR 15601951-Enregistrement du 22/09/2022
Fait en reco le 11 novembre 2022]]></desc>
  </metadata>
  <trk>
    <name><![CDATA[Chateau Laval - Gréoux - St Martin de Brômes]]></name>
    <desc><![CDATA[base OR 15601951-Enregistrement du 22/09/2022]]></desc>
    <extensions>
      <line xmlns="http://www.topografix.com/GPX/gpx_style/0/2">
        <color>FF0000</color>
        <width>4</width>
          <extensions>
            <sens>1</sens>
          </extensions>
      </line>
    </extensions>
    <trkseg>
      <trkpt lat="43.76845" lon="5.89922">
        <ele>355</ele>
        <time>2022-09-26T15:27:01Z</time>
        <extensions>
          <visugpx:TrkExtension xmlns:visugpx="https://www.visugpx.com/editgpx/">
            <visugpx:node>3</visugpx:node>
            </visugpx:TrkExtension>
        </extensions>
      </trkpt>
      <trkpt lat="43.76802" lon="5.89892">
        <ele>353</ele>
        <time>2022-09-26T15:25:57Z</time>
      </trkpt>
      <trkpt lat="43.76774" lon="5.89919">
        <ele>356</ele>
        <time>2022-09-26T15:25:11Z</time>
      </trkpt>
      <trkpt lat="43.76777" lon="5.89927">
        <ele>357</ele>
        <time>2022-09-26T15:25:02Z</time>
      </trkpt>
      <trkpt lat="43.7677" lon="5.89934">
        <ele>358</ele>
        <time>2022-09-26T15:24:51Z</time>
      </trkpt>
      <trkpt lat="43.76734" lon="5.89942">
        <ele>358</ele>
        <time>2022-09-26T15:24:02Z</time>
      </trkpt>
      <trkpt lat="43.76703" lon="5.89981">
        <ele>361</ele>
        <time>2022-09-26T15:23:06Z</time>
      </trkpt>
      <trkpt lat="43.76692" lon="5.90018">
        <ele>364</ele>
        <time>2022-09-26T15:22:28Z</time>
      </trkpt>
      <trkpt lat="43.76683" lon="5.90034">
        <ele>365</ele>
        <time>2022-09-26T15:22:08Z</time>
      </trkpt>
      <trkpt lat="43.76667" lon="5.90046">
        <ele>365</ele>
        <time>2022-09-26T15:21:44Z</time>
      </trkpt>
      <trkpt lat="43.76671" lon="5.90046">
        <ele>365</ele>
        <time>2022-09-26T15:21:39Z</time>
      </trkpt>
      <trkpt lat="43.7663" lon="5.90103">
        <ele>370</ele>
        <time>2022-09-26T15:20:21Z</time>
      </trkpt>
      <trkpt lat="43.76625" lon="5.90132">
        <ele>371</ele>
        <time>2022-09-26T15:19:52Z</time>
      </trkpt>
      <trkpt lat="43.76627" lon="5.90154">
        <ele>372</ele>
        <time>2022-09-26T15:19:31Z</time>
      </trkpt>
      <trkpt lat="43.76637" lon="5.90178">
        <ele>373</ele>
        <time>2022-09-26T15:19:04Z</time>
      </trkpt>
      <trkpt lat="43.7665" lon="5.90234">
        <ele>375</ele>
        <time>2022-09-26T15:18:08Z</time>
      </trkpt>
      <trkpt lat="43.76661" lon="5.90253">
        <ele>375</ele>
        <time>2022-09-26T15:17:44Z</time>
      </trkpt>
      <trkpt lat="43.76674" lon="5.9029">
        <ele>379</ele>
        <time>2022-09-26T15:17:04Z</time>
      </trkpt>
      <trkpt lat="43.76688" lon="5.90348">
        <ele>385</ele>
        <time>2022-09-26T15:16:06Z</time>
      </trkpt>
      <trkpt lat="43.76705" lon="5.90376">
        <ele>389</ele>
        <time>2022-09-26T15:15:30Z</time>
      </trkpt>
      <trkpt lat="43.76728" lon="5.90396">
        <ele>390</ele>
        <time>2022-09-26T15:14:54Z</time>
      </trkpt>
      <trkpt lat="43.7674" lon="5.90427">
        <ele>389</ele>
        <time>2022-09-26T15:14:20Z</time>
      </trkpt>
      <trkpt lat="43.76759" lon="5.90452">
        <ele>391</ele>
        <time>2022-09-26T15:13:45Z</time>
      </trkpt>
      <trkpt lat="43.76768" lon="5.90458">
        <ele>393</ele>
        <time>2022-09-26T15:13:32Z</time>
      </trkpt>
      <trkpt lat="43.76782" lon="5.90484">
        <ele>396</ele>
        <time>2022-09-26T15:13:01Z</time>
      </trkpt>
      <trkpt lat="43.76796" lon="5.90496">
        <ele>397</ele>
        <time>2022-09-26T15:12:39Z</time>
      </trkpt>
      <trkpt lat="43.76816" lon="5.90531">
        <ele>400</ele>
        <time>2022-09-26T15:11:56Z</time>
      </trkpt>
      <trkpt lat="43.76842" lon="5.90555">
        <ele>400</ele>
        <time>2022-09-26T15:11:14Z</time>
      </trkpt>
      <trkpt lat="43.76854" lon="5.90576">
        <ele>401</ele>
        <time>2022-09-26T15:10:48Z</time>
      </trkpt>
      <trkpt lat="43.76875" lon="5.90593">
        <ele>404</ele>
        <time>2022-09-26T15:10:16Z</time>
      </trkpt>
      <trkpt lat="43.76888" lon="5.90618">
        <ele>405</ele>
        <time>2022-09-26T15:09:46Z</time>
      </trkpt>
      <trkpt lat="43.76911" lon="5.90646">
        <ele>403</ele>
        <time>2022-09-26T15:09:05Z</time>
      </trkpt>
      <trkpt lat="43.76922" lon="5.90654">
        <ele>403</ele>
        <time>2022-09-26T15:08:49Z</time>
      </trkpt>
      <trkpt lat="43.76941" lon="5.90685">
        <ele>407</ele>
        <time>2022-09-26T15:08:09Z</time>
      </trkpt>
      <trkpt lat="43.76998" lon="5.90707">
        <ele>411</ele>
        <time>2022-09-26T15:06:50Z</time>
      </trkpt>
      <trkpt lat="43.77008" lon="5.90707">
        <ele>412</ele>
        <time>2022-09-26T15:06:37Z</time>
      </trkpt>
      <trkpt lat="43.7702" lon="5.90719">
        <ele>413</ele>
        <time>2022-09-26T15:06:17Z</time>
      </trkpt>
      <trkpt lat="43.77046" lon="5.90722">
        <ele>416</ele>
        <time>2022-09-26T15:05:42Z</time>
      </trkpt>
      <trkpt lat="43.77078" lon="5.9075">
        <ele>416</ele>
        <time>2022-09-26T15:04:52Z</time>
      </trkpt>
      <trkpt lat="43.77089" lon="5.90765">
        <ele>418</ele>
        <time>2022-09-26T15:04:31Z</time>
      </trkpt>
      <trkpt lat="43.77103" lon="5.90808">
        <ele>422</ele>
        <time>2022-09-26T15:03:46Z</time>
      </trkpt>
      <trkpt lat="43.77095" lon="5.90841">
        <ele>421</ele>
        <time>2022-09-26T15:03:12Z</time>
      </trkpt>
      <trkpt lat="43.77103" lon="5.90887">
        <ele>425</ele>
        <time>2022-09-26T15:02:27Z</time>
      </trkpt>
      <trkpt lat="43.77102" lon="5.90936">
        <ele>427</ele>
        <time>2022-09-26T15:01:40Z</time>
      </trkpt>
      <trkpt lat="43.77123" lon="5.90993">
        <ele>432</ele>
        <time>2022-09-26T15:00:38Z</time>
      </trkpt>
      <trkpt lat="43.77125" lon="5.9101">
        <ele>432</ele>
        <time>2022-09-26T15:00:21Z</time>
      </trkpt>
      <trkpt lat="43.77142" lon="5.91037">
        <ele>433</ele>
        <time>2022-09-26T14:59:47Z</time>
      </trkpt>
      <trkpt lat="43.77155" lon="5.91075">
        <ele>431</ele>
        <time>2022-09-26T14:59:06Z</time>
      </trkpt>
      <trkpt lat="43.77178" lon="5.91089">
        <ele>434</ele>
        <time>2022-09-26T14:58:33Z</time>
      </trkpt>
      <trkpt lat="43.77189" lon="5.91108">
        <ele>439</ele>
        <time>2022-09-26T14:58:09Z</time>
      </trkpt>
      <trkpt lat="43.77194" lon="5.91124">
        <ele>440</ele>
        <time>2022-09-26T14:57:52Z</time>
      </trkpt>
      <trkpt lat="43.77195" lon="5.91148">
        <ele>441</ele>
        <time>2022-09-26T14:57:29Z</time>
      </trkpt>
      <trkpt lat="43.7721" lon="5.91175">
        <ele>444</ele>
        <time>2022-09-26T14:56:56Z</time>
      </trkpt>
      <trkpt lat="43.77217" lon="5.91227">
        <ele>443</ele>
        <time>2022-09-26T14:56:05Z</time>
      </trkpt>
      <trkpt lat="43.77228" lon="5.9125">
        <ele>443</ele>
        <time>2022-09-26T14:55:39Z</time>
      </trkpt>
      <trkpt lat="43.77228" lon="5.91273">
        <ele>443</ele>
        <time>2022-09-26T14:55:17Z</time>
      </trkpt>
      <trkpt lat="43.77242" lon="5.91316">
        <ele>442</ele>
        <time>2022-09-26T14:54:31Z</time>
      </trkpt>
      <trkpt lat="43.77255" lon="5.91335">
        <ele>442</ele>
        <time>2022-09-26T14:54:06Z</time>
      </trkpt>
      <trkpt lat="43.77298" lon="5.9136">
        <ele>447</ele>
        <time>2022-09-26T14:53:04Z</time>
      </trkpt>
      <trkpt lat="43.77325" lon="5.91393">
        <ele>448</ele>
        <time>2022-09-26T14:52:16Z</time>
      </trkpt>
      <trkpt lat="43.77335" lon="5.9142">
        <ele>448</ele>
        <time>2022-09-26T14:51:47Z</time>
      </trkpt>
      <trkpt lat="43.77336" lon="5.91433">
        <ele>449</ele>
        <time>2022-09-26T14:51:34Z</time>
      </trkpt>
      <trkpt lat="43.77322" lon="5.91489">
        <ele>454</ele>
        <time>2022-09-26T14:50:37Z</time>
      </trkpt>
      <trkpt lat="43.77317" lon="5.91533">
        <ele>457</ele>
        <time>2022-09-26T14:49:54Z</time>
      </trkpt>
      <trkpt lat="43.7732" lon="5.91555">
        <ele>457</ele>
        <time>2022-09-26T14:49:32Z</time>
      </trkpt>
      <trkpt lat="43.77329" lon="5.91578">
        <ele>457</ele>
        <time>2022-09-26T14:49:07Z</time>
      </trkpt>
      <trkpt lat="43.77335" lon="5.9159">
        <ele>457</ele>
        <time>2022-09-26T14:48:53Z</time>
      </trkpt>
      <trkpt lat="43.77358" lon="5.91604">
        <ele>462</ele>
        <time>2022-09-26T14:48:20Z</time>
      </trkpt>
      <trkpt lat="43.77379" lon="5.91659">
        <ele>463</ele>
        <time>2022-09-26T14:47:20Z</time>
      </trkpt>
      <trkpt lat="43.77413" lon="5.91707">
        <ele>464</ele>
        <time>2022-09-26T14:46:15Z</time>
      </trkpt>
      <trkpt lat="43.77443" lon="5.91721">
        <ele>467</ele>
        <time>2022-09-26T14:45:33Z</time>
      </trkpt>
      <trkpt lat="43.77465" lon="5.91742">
        <ele>469</ele>
        <time>2022-09-26T14:44:57Z</time>
      </trkpt>
      <trkpt lat="43.7748" lon="5.91748">
        <ele>469</ele>
        <time>2022-09-26T14:44:36Z</time>
      </trkpt>
      <trkpt lat="43.77485" lon="5.91765">
        <ele>470</ele>
        <time>2022-09-26T14:44:18Z</time>
      </trkpt>
      <trkpt lat="43.77483" lon="5.91782">
        <ele>470</ele>
        <time>2022-09-26T14:44:02Z</time>
      </trkpt>
      <trkpt lat="43.77486" lon="5.91797">
        <ele>471</ele>
        <time>2022-09-26T14:43:47Z</time>
      </trkpt>
      <trkpt lat="43.7751" lon="5.91827">
        <ele>472</ele>
        <time>2022-09-26T14:43:04Z</time>
      </trkpt>
      <trkpt lat="43.77537" lon="5.91873">
        <ele>478</ele>
        <time>2022-09-26T14:42:07Z</time>
      </trkpt>
      <trkpt lat="43.77541" lon="5.91889">
        <ele>479</ele>
        <time>2022-09-26T14:41:50Z</time>
      </trkpt>
      <trkpt lat="43.77557" lon="5.91909">
        <ele>480</ele>
        <time>2022-09-26T14:41:21Z</time>
      </trkpt>
      <trkpt lat="43.77561" lon="5.91943">
        <ele>480</ele>
        <time>2022-09-26T14:40:48Z</time>
      </trkpt>
      <trkpt lat="43.7756" lon="5.91984">
        <ele>481</ele>
        <time>2022-09-26T14:40:09Z</time>
      </trkpt>
      <trkpt lat="43.77584" lon="5.92045">
        <ele>480</ele>
        <time>2022-09-26T14:39:02Z</time>
      </trkpt>
      <trkpt lat="43.77631" lon="5.92121">
        <ele>475</ele>
        <time>2022-09-26T14:37:18Z</time>
      </trkpt>
      <trkpt lat="43.77628" lon="5.92127">
        <ele>486</ele>
        <time>2022-09-26T14:36:34Z</time>
      </trkpt>
      <trkpt lat="43.77617" lon="5.92128">
        <ele>486</ele>
        <time>2022-09-26T14:36:19Z</time>
      </trkpt>
      <trkpt lat="43.77613" lon="5.92123">
        <ele>485</ele>
        <time>2022-09-26T14:36:12Z</time>
      </trkpt>
      <trkpt lat="43.77596" lon="5.92119">
        <ele>484</ele>
        <time>2022-09-26T14:35:49Z</time>
      </trkpt>
      <trkpt lat="43.77582" lon="5.92104">
        <ele>483</ele>
        <time>2022-09-26T14:35:25Z</time>
      </trkpt>
      <trkpt lat="43.77568" lon="5.921">
        <ele>485</ele>
        <time>2022-09-26T14:35:06Z</time>
      </trkpt>
      <trkpt lat="43.77555" lon="5.9209">
        <ele>486</ele>
        <time>2022-09-26T14:34:47Z</time>
      </trkpt>
      <trkpt lat="43.77521" lon="5.92049">
        <ele>488</ele>
        <time>2022-09-26T14:33:46Z</time>
      </trkpt>
      <trkpt lat="43.775" lon="5.92035">
        <ele>490</ele>
        <time>2022-09-26T14:33:15Z</time>
      </trkpt>
      <trkpt lat="43.77472" lon="5.91996">
        <ele>491</ele>
        <time>2022-09-26T14:32:22Z</time>
      </trkpt>
      <trkpt lat="43.7744" lon="5.91963">
        <ele>492</ele>
        <time>2022-09-26T14:31:29Z</time>
      </trkpt>
      <trkpt lat="43.77408" lon="5.91945">
        <ele>494</ele>
        <time>2022-09-26T14:30:43Z</time>
      </trkpt>
      <trkpt lat="43.774" lon="5.91948">
        <ele>495</ele>
        <time>2022-09-26T14:30:32Z</time>
      </trkpt>
      <trkpt lat="43.77398" lon="5.91955">
        <ele>496</ele>
        <time>2022-09-26T14:30:25Z</time>
      </trkpt>
      <trkpt lat="43.77449" lon="5.92056">
        <ele>499</ele>
        <time>2022-09-26T14:28:26Z</time>
      </trkpt>
      <trkpt lat="43.77454" lon="5.92106">
        <ele>501</ele>
        <time>2022-09-26T14:27:37Z</time>
      </trkpt>
      <trkpt lat="43.7745" lon="5.92121">
        <ele>502</ele>
        <time>2022-09-26T14:27:22Z</time>
      </trkpt>
      <trkpt lat="43.77442" lon="5.92127">
        <ele>503</ele>
        <time>2022-09-26T14:27:10Z</time>
      </trkpt>
      <trkpt lat="43.77406" lon="5.92128">
        <ele>507</ele>
        <time>2022-09-26T14:26:22Z</time>
      </trkpt>
      <trkpt lat="43.77277" lon="5.92155">
        <ele>512</ele>
        <time>2022-09-26T14:23:28Z</time>
      </trkpt>
      <trkpt lat="43.77308" lon="5.92206">
        <ele>512</ele>
        <time>2022-09-26T14:22:23Z</time>
      </trkpt>
      <trkpt lat="43.77347" lon="5.92291">
        <ele>512</ele>
        <time>2022-09-26T14:20:46Z</time>
      </trkpt>
      <trkpt lat="43.77446" lon="5.92467">
        <ele>515</ele>
        <time>2022-09-26T14:17:11Z</time>
      </trkpt>
      <trkpt lat="43.77478" lon="5.92546">
        <ele>514</ele>
        <time>2022-09-26T14:15:44Z</time>
      </trkpt>
      <trkpt lat="43.77474" lon="5.92553">
        <ele>514</ele>
        <time>2022-09-26T14:15:35Z</time>
      </trkpt>
      <trkpt lat="43.77452" lon="5.92556">
        <ele>515</ele>
        <time>2022-09-26T14:15:06Z</time>
      </trkpt>
      <trkpt lat="43.77422" lon="5.9257">
        <ele>516</ele>
        <time>2022-09-26T14:14:24Z</time>
      </trkpt>
      <trkpt lat="43.77397" lon="5.92593">
        <ele>514</ele>
        <time>2022-09-26T14:13:44Z</time>
      </trkpt>
      <trkpt lat="43.77381" lon="5.926">
        <ele>514</ele>
        <time>2022-09-26T14:13:21Z</time>
      </trkpt>
      <trkpt lat="43.7738" lon="5.92605">
        <ele>513</ele>
        <time>2022-09-26T14:13:16Z</time>
      </trkpt>
      <trkpt lat="43.7736" lon="5.92612">
        <ele>513</ele>
        <time>2022-09-26T14:12:49Z</time>
      </trkpt>
      <trkpt lat="43.77345" lon="5.92632">
        <ele>513</ele>
        <time>2022-09-26T14:12:21Z</time>
      </trkpt>
      <trkpt lat="43.77312" lon="5.92663">
        <ele>513</ele>
        <time>2022-09-26T14:11:28Z</time>
      </trkpt>
      <trkpt lat="43.77301" lon="5.92668">
        <ele>513</ele>
        <time>2022-09-26T14:11:12Z</time>
      </trkpt>
      <trkpt lat="43.77254" lon="5.92709">
        <ele>513</ele>
        <time>2022-09-26T14:09:58Z</time>
      </trkpt>
      <trkpt lat="43.77241" lon="5.92734">
        <ele>512</ele>
        <time>2022-09-26T14:09:28Z</time>
      </trkpt>
      <trkpt lat="43.77241" lon="5.92743">
        <ele>512</ele>
        <time>2022-09-26T14:09:20Z</time>
      </trkpt>
      <trkpt lat="43.77237" lon="5.92741">
        <ele>511</ele>
        <time>2022-09-26T14:09:14Z</time>
      </trkpt>
      <trkpt lat="43.7724" lon="5.92746">
        <ele>511</ele>
        <time>2022-09-26T14:09:08Z</time>
      </trkpt>
      <trkpt lat="43.77235" lon="5.92748">
        <ele>511</ele>
        <time>2022-09-26T14:09:01Z</time>
      </trkpt>
      <trkpt lat="43.77224" lon="5.92813">
        <ele>505</ele>
        <time>2022-09-26T14:07:57Z</time>
      </trkpt>
      <trkpt lat="43.77227" lon="5.92893">
        <ele>498</ele>
        <time>2022-09-26T14:06:39Z</time>
      </trkpt>
      <trkpt lat="43.77224" lon="5.9294">
        <ele>494</ele>
        <time>2022-09-26T14:05:54Z</time>
      </trkpt>
      <trkpt lat="43.77228" lon="5.92967">
        <ele>491</ele>
        <time>2022-09-26T14:05:27Z</time>
      </trkpt>
      <trkpt lat="43.77222" lon="5.92981">
        <ele>490</ele>
        <time>2022-09-26T14:05:12Z</time>
      </trkpt>
      <trkpt lat="43.77209" lon="5.92994">
        <ele>489</ele>
        <time>2022-09-26T14:04:50Z</time>
      </trkpt>
      <trkpt lat="43.77178" lon="5.93054">
        <ele>486</ele>
        <time>2022-09-26T14:03:39Z</time>
      </trkpt>
      <trkpt lat="43.77174" lon="5.93106">
        <ele>479</ele>
        <time>2022-09-26T14:02:49Z</time>
      </trkpt>
      <trkpt lat="43.77167" lon="5.93129">
        <ele>475</ele>
        <time>2022-09-26T14:02:25Z</time>
      </trkpt>
      <trkpt lat="43.77164" lon="5.93164">
        <ele>468</ele>
        <time>2022-09-26T14:01:51Z</time>
      </trkpt>
      <trkpt lat="43.77148" lon="5.93211">
        <ele>461</ele>
        <time>2022-09-26T14:01:01Z</time>
      </trkpt>
      <trkpt lat="43.77141" lon="5.93264">
        <ele>452</ele>
        <time>2022-09-26T14:00:09Z</time>
      </trkpt>
      <trkpt lat="43.77107" lon="5.93349">
        <ele>442</ele>
        <time>2022-09-26T13:58:35Z</time>
      </trkpt>
      <trkpt lat="43.7708" lon="5.93435">
        <ele>433</ele>
        <time>2022-09-26T13:57:05Z</time>
      </trkpt>
      <trkpt lat="43.77074" lon="5.93489">
        <ele>424</ele>
        <time>2022-09-26T13:56:12Z</time>
      </trkpt>
      <trkpt lat="43.77067" lon="5.93513">
        <ele>421</ele>
        <time>2022-09-26T13:55:47Z</time>
      </trkpt>
      <trkpt lat="43.77057" lon="5.93617">
        <ele>409</ele>
        <time>2022-09-26T13:54:06Z</time>
      </trkpt>
      <trkpt lat="43.77044" lon="5.93657">
        <ele>405</ele>
        <time>2022-09-26T13:53:24Z</time>
      </trkpt>
      <trkpt lat="43.77015" lon="5.93784">
        <ele>395</ele>
        <time>2022-09-26T13:51:15Z</time>
      </trkpt>
      <trkpt lat="43.76986" lon="5.9385">
        <ele>390</ele>
        <time>2022-09-26T13:50:01Z</time>
      </trkpt>
      <trkpt lat="43.76963" lon="5.93921">
        <ele>383</ele>
        <time>2022-09-26T13:48:46Z</time>
      </trkpt>
      <trkpt lat="43.76949" lon="5.94024">
        <ele>379</ele>
        <time>2022-09-26T13:47:05Z</time>
      </trkpt>
      <trkpt lat="43.76946" lon="5.94116">
        <ele>372</ele>
        <time>2022-09-26T13:45:36Z</time>
      </trkpt>
      <trkpt lat="43.76951" lon="5.94139">
        <ele>369</ele>
        <time>2022-09-26T13:45:13Z</time>
      </trkpt>
      <trkpt lat="43.76944" lon="5.94205">
        <ele>363</ele>
        <time>2022-09-26T13:44:09Z</time>
      </trkpt>
      <trkpt lat="43.76955" lon="5.94261">
        <ele>357</ele>
        <time>2022-09-26T13:43:13Z</time>
      </trkpt>
      <trkpt lat="43.76965" lon="5.94287">
        <ele>356</ele>
        <time>2022-09-26T13:42:44Z</time>
      </trkpt>
      <trkpt lat="43.76964" lon="5.94304">
        <ele>355</ele>
        <time>2022-09-26T13:42:28Z</time>
      </trkpt>
      <trkpt lat="43.7697" lon="5.94329">
        <ele>354</ele>
        <time>2022-09-26T13:42:03Z</time>
      </trkpt>
      <trkpt lat="43.76982" lon="5.94361">
        <ele>355</ele>
        <time>2022-09-26T13:41:28Z</time>
      </trkpt>
      <trkpt lat="43.76996" lon="5.9438">
        <ele>357</ele>
        <time>2022-09-26T13:41:02Z</time>
      </trkpt>
      <trkpt lat="43.7701" lon="5.94382">
        <ele>355.3</ele>
        <time>2022-09-26T13:40:40Z</time>
      </trkpt>
      <trkpt lat="43.77034" lon="5.94382">
        <ele>356.6</ele>
      </trkpt>
      <trkpt lat="43.77039" lon="5.94397">
        <ele>361</ele>
        <time>2022-09-26T13:40:02Z</time>
      </trkpt>
      <trkpt lat="43.77015" lon="5.94423">
        <ele>361</ele>
        <time>2022-09-26T13:39:13Z</time>
      </trkpt>
      <trkpt lat="43.77022" lon="5.94437">
        <ele>363</ele>
        <time>2022-09-26T13:38:56Z</time>
      </trkpt>
      <trkpt lat="43.77024" lon="5.94443">
        <ele>363.1</ele>
      </trkpt>
      <trkpt lat="43.77029" lon="5.94451">
        <ele>365</ele>
        <time>2022-09-26T13:38:33Z</time>
      </trkpt>
      <trkpt lat="43.77033" lon="5.9445">
        <ele>365.9</ele>
        <time>2022-09-26T13:38:24Z</time>
      </trkpt>
      <trkpt lat="43.77026" lon="5.94467">
        <ele>367.6</ele>
        <time>2022-09-26T13:38:01Z</time>
      </trkpt>
      <trkpt lat="43.77031" lon="5.945">
        <ele>370</ele>
        <time>2022-09-26T13:37:23Z</time>
      </trkpt>
      <trkpt lat="43.77038" lon="5.94505">
        <ele>371</ele>
        <time>2022-09-26T13:37:13Z</time>
      </trkpt>
      <trkpt lat="43.77044" lon="5.94489">
        <ele>371</ele>
        <time>2022-09-26T13:36:55Z</time>
      </trkpt>
      <trkpt lat="43.7705" lon="5.94496">
        <ele>372</ele>
        <time>2022-09-26T13:36:45Z</time>
      </trkpt>
      <trkpt lat="43.77053" lon="5.94518">
        <ele>374</ele>
        <time>2022-09-26T13:36:23Z</time>
      </trkpt>
      <trkpt lat="43.77065" lon="5.9452">
        <ele>376</ele>
        <time>2022-09-26T13:35:24Z</time>
      </trkpt>
      <trkpt lat="43.77059" lon="5.94519">
        <ele>375</ele>
        <time>2022-09-26T13:35:16Z</time>
      </trkpt>
      <trkpt lat="43.77049" lon="5.94522">
        <ele>374</ele>
        <time>2022-09-26T13:35:02Z</time>
      </trkpt>
      <trkpt lat="43.77043" lon="5.9451">
        <ele>372</ele>
        <time>2022-09-26T13:34:48Z</time>
      </trkpt>
      <trkpt lat="43.77043" lon="5.94489">
        <ele>370</ele>
        <time>2022-09-26T13:34:28Z</time>
      </trkpt>
      <trkpt lat="43.77033" lon="5.94509">
        <ele>373.7</ele>
        <time>2022-09-26T13:34:13Z</time>
      </trkpt>
      <trkpt lat="43.77037" lon="5.94519">
        <ele>372</ele>
        <time>2022-09-26T13:33:57Z</time>
      </trkpt>
      <trkpt lat="43.77049" lon="5.94538">
        <ele>374</ele>
        <time>2022-09-26T13:33:33Z</time>
      </trkpt>
      <trkpt lat="43.77047" lon="5.94545">
        <ele>374</ele>
        <time>2022-09-26T13:33:25Z</time>
      </trkpt>
      <trkpt lat="43.77037" lon="5.94533">
        <ele>375.4</ele>
      </trkpt>
      <trkpt lat="43.77026" lon="5.94537">
        <ele>371.3</ele>
        <time>2022-09-26T13:33:09Z</time>
      </trkpt>
      <trkpt lat="43.7703" lon="5.94569">
        <ele>372.6</ele>
        <time>2022-09-26T13:32:49Z</time>
      </trkpt>
      <trkpt lat="43.77014" lon="5.94566">
        <ele>368.2</ele>
        <time>2022-09-26T13:31:59Z</time>
      </trkpt>
      <trkpt lat="43.77007" lon="5.94567">
        <ele>366.3</ele>
        <time>2022-09-26T13:31:45Z</time>
      </trkpt>
      <trkpt lat="43.76981" lon="5.9458">
        <ele>361.5</ele>
        <time>2022-09-26T13:31:36Z</time>
      </trkpt>
      <trkpt lat="43.76975" lon="5.94546">
        <ele>359.2</ele>
      </trkpt>
      <trkpt lat="43.76979" lon="5.94497">
        <ele>357.6</ele>
      </trkpt>
      <trkpt lat="43.76966" lon="5.94493">
        <ele>354.9</ele>
      </trkpt>
      <trkpt lat="43.76961" lon="5.94448">
        <ele>357</ele>
        <time>2022-09-26T13:29:15Z</time>
      </trkpt>
      <trkpt lat="43.76956" lon="5.94442">
        <ele>356</ele>
        <time>2022-09-26T13:29:01Z</time>
      </trkpt>
      <trkpt lat="43.76962" lon="5.94443">
        <ele>357</ele>
        <time>2022-09-26T13:28:37Z</time>
      </trkpt>
      <trkpt lat="43.76969" lon="5.94441">
        <ele>353.7</ele>
      </trkpt>
      <trkpt lat="43.77001" lon="5.94449">
        <ele>359.6</ele>
        <time>2022-09-26T13:28:09Z</time>
      </trkpt>
      <trkpt lat="43.76987" lon="5.94472">
        <ele>358.3</ele>
        <time>2022-09-26T13:28:00Z</time>
      </trkpt>
      <trkpt lat="43.76983" lon="5.9448">
        <ele>362</ele>
        <time>2022-09-26T13:27:48Z</time>
      </trkpt>
      <trkpt lat="43.76972" lon="5.94493">
        <ele>361</ele>
        <time>2022-09-26T13:27:28Z</time>
      </trkpt>
      <trkpt lat="43.76978" lon="5.94493">
        <ele>362</ele>
        <time>2022-09-26T13:27:20Z</time>
      </trkpt>
      <trkpt lat="43.76969" lon="5.94496">
        <ele>361</ele>
        <time>2022-09-26T13:27:08Z</time>
      </trkpt>
      <trkpt lat="43.76967" lon="5.94507">
        <ele>361</ele>
        <time>2022-09-26T13:26:57Z</time>
      </trkpt>
      <trkpt lat="43.76962" lon="5.94509">
        <ele>361</ele>
        <time>2022-09-26T13:26:50Z</time>
      </trkpt>
      <trkpt lat="43.76957" lon="5.94522">
        <ele>360</ele>
        <time>2022-09-26T13:26:36Z</time>
      </trkpt>
      <trkpt lat="43.76961" lon="5.94536">
        <ele>361</ele>
        <time>2022-09-26T13:26:21Z</time>
      </trkpt>
      <trkpt lat="43.76948" lon="5.94557">
        <ele>360</ele>
        <time>2022-09-26T13:25:55Z</time>
      </trkpt>
      <trkpt lat="43.76945" lon="5.94578">
        <ele>360</ele>
        <time>2022-09-26T13:25:34Z</time>
      </trkpt>
      <trkpt lat="43.76933" lon="5.94603">
        <ele>359</ele>
        <time>2022-09-26T13:25:05Z</time>
      </trkpt>
      <trkpt lat="43.76938" lon="5.94633">
        <ele>361</ele>
        <time>2022-09-26T13:24:36Z</time>
      </trkpt>
      <trkpt lat="43.76928" lon="5.94656">
        <ele>360</ele>
        <time>2022-09-26T13:24:10Z</time>
      </trkpt>
      <trkpt lat="43.76927" lon="5.94668">
        <ele>360</ele>
        <time>2022-09-26T13:23:58Z</time>
      </trkpt>
      <trkpt lat="43.76933" lon="5.94676">
        <ele>361</ele>
        <time>2022-09-26T13:23:47Z</time>
      </trkpt>
      <trkpt lat="43.76938" lon="5.94709">
        <ele>362</ele>
        <time>2022-09-26T13:23:14Z</time>
      </trkpt>
      <trkpt lat="43.76947" lon="5.94732">
        <ele>363</ele>
        <time>2022-09-26T13:22:49Z</time>
      </trkpt>
      <trkpt lat="43.76946" lon="5.94749">
        <ele>363</ele>
        <time>2022-09-26T13:22:33Z</time>
      </trkpt>
      <trkpt lat="43.76914" lon="5.94786">
        <ele>362</ele>
        <time>2022-09-26T13:21:37Z</time>
      </trkpt>
      <trkpt lat="43.76903" lon="5.94778">
        <ele>364</ele>
        <time>2022-09-26T13:21:21Z</time>
      </trkpt>
      <trkpt lat="43.76895" lon="5.94778">
        <ele>367</ele>
        <time>2022-09-26T13:21:10Z</time>
      </trkpt>
      <trkpt lat="43.76889" lon="5.9477">
        <ele>368</ele>
        <time>2022-09-26T13:20:59Z</time>
      </trkpt>
      <trkpt lat="43.76878" lon="5.94746">
        <ele>370</ele>
        <time>2022-09-26T13:20:31Z</time>
      </trkpt>
      <trkpt lat="43.76875" lon="5.94725">
        <ele>369</ele>
        <time>2022-09-26T13:20:11Z</time>
      </trkpt>
      <trkpt lat="43.76863" lon="5.94707">
        <ele>371</ele>
        <time>2022-09-26T13:19:47Z</time>
      </trkpt>
      <trkpt lat="43.76851" lon="5.94701">
        <ele>374</ele>
        <time>2022-09-26T13:19:30Z</time>
      </trkpt>
      <trkpt lat="43.76851" lon="5.94693">
        <ele>373</ele>
        <time>2022-09-26T13:19:22Z</time>
      </trkpt>
      <trkpt lat="43.76842" lon="5.94677">
        <ele>374</ele>
        <time>2022-09-26T13:19:03Z</time>
      </trkpt>
      <trkpt lat="43.76843" lon="5.94663">
        <ele>373</ele>
        <time>2022-09-26T13:18:49Z</time>
      </trkpt>
      <trkpt lat="43.76832" lon="5.94626">
        <ele>373</ele>
        <time>2022-09-26T13:18:11Z</time>
      </trkpt>
      <trkpt lat="43.76832" lon="5.946">
        <ele>371</ele>
        <time>2022-09-26T13:17:46Z</time>
      </trkpt>
      <trkpt lat="43.76827" lon="5.94589">
        <ele>372</ele>
        <time>2022-09-26T13:17:33Z</time>
      </trkpt>
      <trkpt lat="43.76827" lon="5.94568">
        <ele>371</ele>
        <time>2022-09-26T13:17:13Z</time>
      </trkpt>
      <trkpt lat="43.7682" lon="5.94538">
        <ele>371</ele>
        <time>2022-09-26T13:16:43Z</time>
      </trkpt>
      <trkpt lat="43.76825" lon="5.94519">
        <ele>368</ele>
        <time>2022-09-26T13:16:23Z</time>
      </trkpt>
      <trkpt lat="43.76824" lon="5.94506">
        <ele>367</ele>
        <time>2022-09-26T13:16:11Z</time>
      </trkpt>
      <trkpt lat="43.76802" lon="5.94452">
        <ele>368</ele>
        <time>2022-09-26T13:15:11Z</time>
      </trkpt>
      <trkpt lat="43.76779" lon="5.94415">
        <ele>371</ele>
        <time>2022-09-26T13:14:24Z</time>
      </trkpt>
      <trkpt lat="43.76768" lon="5.94379">
        <ele>371</ele>
        <time>2022-09-26T13:13:46Z</time>
      </trkpt>
      <trkpt lat="43.76753" lon="5.94351">
        <ele>371</ele>
        <time>2022-09-26T13:13:12Z</time>
      </trkpt>
      <trkpt lat="43.76733" lon="5.94266">
        <ele>361</ele>
        <time>2022-09-26T13:11:46Z</time>
      </trkpt>
      <trkpt lat="43.76708" lon="5.94201">
        <ele>358</ele>
        <time>2022-09-26T13:10:35Z</time>
      </trkpt>
      <trkpt lat="43.76709" lon="5.94159">
        <ele>354</ele>
        <time>2022-09-26T13:09:55Z</time>
      </trkpt>
      <trkpt lat="43.76702" lon="5.94149">
        <ele>355</ele>
        <time>2022-09-26T13:09:41Z</time>
      </trkpt>
      <trkpt lat="43.76696" lon="5.94147">
        <ele>356</ele>
        <time>2022-09-26T13:09:33Z</time>
      </trkpt>
      <trkpt lat="43.76694" lon="5.94136">
        <ele>356</ele>
        <time>2022-09-26T13:09:22Z</time>
      </trkpt>
      <trkpt lat="43.76698" lon="5.94107">
        <ele>355</ele>
        <time>2022-09-26T13:08:54Z</time>
      </trkpt>
      <trkpt lat="43.76693" lon="5.94086">
        <ele>355</ele>
        <time>2022-09-26T13:08:32Z</time>
      </trkpt>
      <trkpt lat="43.76695" lon="5.94042">
        <ele>353</ele>
        <time>2022-09-26T13:07:50Z</time>
      </trkpt>
      <trkpt lat="43.76687" lon="5.9401">
        <ele>352</ele>
        <time>2022-09-26T13:07:17Z</time>
      </trkpt>
      <trkpt lat="43.76675" lon="5.93992">
        <ele>350</ele>
        <time>2022-09-26T13:06:54Z</time>
      </trkpt>
      <trkpt lat="43.76618" lon="5.93995">
        <ele>350</ele>
        <time>2022-09-26T13:05:38Z</time>
      </trkpt>
      <trkpt lat="43.76603" lon="5.93985">
        <ele>349</ele>
        <time>2022-09-26T13:05:15Z</time>
      </trkpt>
      <trkpt lat="43.76591" lon="5.93983">
        <ele>349</ele>
        <time>2022-09-26T13:04:59Z</time>
      </trkpt>
      <trkpt lat="43.76563" lon="5.94002">
        <ele>356</ele>
        <time>2022-09-26T13:04:18Z</time>
      </trkpt>
      <trkpt lat="43.76554" lon="5.94004">
        <ele>359</ele>
        <time>2022-09-26T13:04:06Z</time>
      </trkpt>
      <trkpt lat="43.76544" lon="5.93997">
        <ele>361</ele>
        <time>2022-09-26T13:03:51Z</time>
      </trkpt>
      <trkpt lat="43.76536" lon="5.93966">
        <ele>362</ele>
        <time>2022-09-26T13:03:19Z</time>
      </trkpt>
      <trkpt lat="43.7653" lon="5.9396">
        <ele>363</ele>
        <time>2022-09-26T13:03:09Z</time>
      </trkpt>
      <trkpt lat="43.76527" lon="5.93925">
        <ele>363</ele>
        <time>2022-09-26T13:02:35Z</time>
      </trkpt>
      <trkpt lat="43.76535" lon="5.93918">
        <ele>360</ele>
        <time>2022-09-26T13:02:22Z</time>
      </trkpt>
      <trkpt lat="43.76543" lon="5.93888">
        <ele>359</ele>
        <time>2022-09-26T13:01:52Z</time>
      </trkpt>
      <trkpt lat="43.76564" lon="5.93852">
        <ele>355</ele>
        <time>2022-09-26T13:01:07Z</time>
      </trkpt>
      <trkpt lat="43.76584" lon="5.93838">
        <ele>351</ele>
        <time>2022-09-26T13:00:37Z</time>
      </trkpt>
      <trkpt lat="43.766" lon="5.9381">
        <ele>351</ele>
        <time>2022-09-26T13:00:03Z</time>
      </trkpt>
      <trkpt lat="43.7661" lon="5.9378">
        <ele>351</ele>
        <time>2022-09-26T12:59:31Z</time>
      </trkpt>
      <trkpt lat="43.76625" lon="5.93758">
        <ele>350</ele>
        <time>2022-09-26T12:59:02Z</time>
      </trkpt>
      <trkpt lat="43.76648" lon="5.93741">
        <ele>347</ele>
        <time>2022-09-26T12:58:27Z</time>
      </trkpt>
      <trkpt lat="43.76654" lon="5.93708">
        <ele>347</ele>
        <time>2022-09-26T12:57:54Z</time>
      </trkpt>
      <trkpt lat="43.76678" lon="5.9368">
        <ele>348</ele>
        <time>2022-09-26T12:57:12Z</time>
      </trkpt>
      <trkpt lat="43.76695" lon="5.93646">
        <ele>351</ele>
        <time>2022-09-26T12:56:32Z</time>
      </trkpt>
      <trkpt lat="43.76697" lon="5.9362">
        <ele>351</ele>
        <time>2022-09-26T12:56:07Z</time>
      </trkpt>
      <trkpt lat="43.76689" lon="5.93603">
        <ele>350</ele>
        <time>2022-09-26T12:55:48Z</time>
      </trkpt>
      <trkpt lat="43.76655" lon="5.93569">
        <ele>347</ele>
        <time>2022-09-26T12:54:52Z</time>
      </trkpt>
      <trkpt lat="43.76635" lon="5.93559">
        <ele>347</ele>
        <time>2022-09-26T12:54:23Z</time>
      </trkpt>
      <trkpt lat="43.76614" lon="5.93561">
        <ele>346</ele>
        <time>2022-09-26T12:53:55Z</time>
      </trkpt>
      <trkpt lat="43.76602" lon="5.93556">
        <ele>346</ele>
        <time>2022-09-26T12:53:38Z</time>
      </trkpt>
      <trkpt lat="43.76593" lon="5.93559">
        <ele>346</ele>
        <time>2022-09-26T12:53:26Z</time>
      </trkpt>
      <trkpt lat="43.76564" lon="5.93558">
        <ele>344</ele>
        <time>2022-09-26T12:52:47Z</time>
      </trkpt>
      <trkpt lat="43.76546" lon="5.93549">
        <ele>344</ele>
        <time>2022-09-26T12:52:22Z</time>
      </trkpt>
      <trkpt lat="43.76534" lon="5.93548">
        <ele>343</ele>
        <time>2022-09-26T12:52:06Z</time>
      </trkpt>
      <trkpt lat="43.76493" lon="5.93575">
        <ele>341</ele>
        <time>2022-09-26T12:51:05Z</time>
      </trkpt>
      <trkpt lat="43.76488" lon="5.93604">
        <ele>344</ele>
        <time>2022-09-26T12:50:36Z</time>
      </trkpt>
      <trkpt lat="43.76466" lon="5.9363">
        <ele>351</ele>
        <time>2022-09-26T12:49:58Z</time>
      </trkpt>
      <trkpt lat="43.76457" lon="5.93635">
        <ele>352</ele>
        <time>2022-09-26T12:49:45Z</time>
      </trkpt>
      <trkpt lat="43.76445" lon="5.93633">
        <ele>353</ele>
        <time>2022-09-26T12:49:29Z</time>
      </trkpt>
      <trkpt lat="43.76428" lon="5.93599">
        <ele>349</ele>
        <time>2022-09-26T12:48:49Z</time>
      </trkpt>
      <trkpt lat="43.76424" lon="5.93581">
        <ele>347</ele>
        <time>2022-09-26T12:48:31Z</time>
      </trkpt>
      <trkpt lat="43.76425" lon="5.93556">
        <ele>345</ele>
        <time>2022-09-26T12:48:07Z</time>
      </trkpt>
      <trkpt lat="43.76418" lon="5.93535">
        <ele>343</ele>
        <time>2022-09-26T12:47:44Z</time>
      </trkpt>
      <trkpt lat="43.76396" lon="5.93521">
        <ele>347</ele>
        <time>2022-09-26T12:47:12Z</time>
      </trkpt>
      <trkpt lat="43.76389" lon="5.93508">
        <ele>348</ele>
        <time>2022-09-26T12:46:56Z</time>
      </trkpt>
      <trkpt lat="43.76374" lon="5.935">
        <ele>351</ele>
        <time>2022-09-26T12:46:35Z</time>
      </trkpt>
      <trkpt lat="43.76367" lon="5.9347">
        <ele>352</ele>
        <time>2022-09-26T12:46:05Z</time>
      </trkpt>
      <trkpt lat="43.76355" lon="5.93447">
        <ele>354</ele>
        <time>2022-09-26T12:45:37Z</time>
      </trkpt>
      <trkpt lat="43.76356" lon="5.9343">
        <ele>353</ele>
        <time>2022-09-26T12:45:21Z</time>
      </trkpt>
      <trkpt lat="43.7635" lon="5.93416">
        <ele>354</ele>
        <time>2022-09-26T12:45:05Z</time>
      </trkpt>
      <trkpt lat="43.76354" lon="5.93391">
        <ele>352</ele>
        <time>2022-09-26T12:44:40Z</time>
      </trkpt>
      <trkpt lat="43.76358" lon="5.93379">
        <ele>350</ele>
        <time>2022-09-26T12:44:28Z</time>
      </trkpt>
      <trkpt lat="43.76379" lon="5.9335">
        <ele>346</ele>
        <time>2022-09-26T12:43:48Z</time>
      </trkpt>
      <trkpt lat="43.76379" lon="5.93338">
        <ele>346</ele>
        <time>2022-09-26T12:43:37Z</time>
      </trkpt>
      <trkpt lat="43.76371" lon="5.93328">
        <ele>347</ele>
        <time>2022-09-26T12:43:22Z</time>
      </trkpt>
      <trkpt lat="43.76359" lon="5.93322">
        <ele>348</ele>
        <time>2022-09-26T12:43:05Z</time>
      </trkpt>
      <trkpt lat="43.76336" lon="5.93278">
        <ele>346</ele>
        <time>2022-09-26T12:42:13Z</time>
      </trkpt>
      <trkpt lat="43.76322" lon="5.9327">
        <ele>350</ele>
        <time>2022-09-26T12:41:53Z</time>
      </trkpt>
      <trkpt lat="43.76317" lon="5.93248">
        <ele>351</ele>
        <time>2022-09-26T12:41:30Z</time>
      </trkpt>
      <trkpt lat="43.76305" lon="5.93232">
        <ele>356</ele>
        <time>2022-09-26T12:41:08Z</time>
      </trkpt>
      <trkpt lat="43.76308" lon="5.93196">
        <ele>354</ele>
        <time>2022-09-26T12:40:33Z</time>
      </trkpt>
      <trkpt lat="43.76305" lon="5.93188">
        <ele>355</ele>
        <time>2022-09-26T12:39:57Z</time>
      </trkpt>
      <trkpt lat="43.76309" lon="5.93163">
        <ele>353</ele>
        <time>2022-09-26T12:39:32Z</time>
      </trkpt>
      <trkpt lat="43.76319" lon="5.93152">
        <ele>349</ele>
        <time>2022-09-26T12:39:15Z</time>
      </trkpt>
      <trkpt lat="43.7632" lon="5.93136">
        <ele>347</ele>
        <time>2022-09-26T12:39:00Z</time>
      </trkpt>
      <trkpt lat="43.76332" lon="5.93127">
        <ele>343</ele>
        <time>2022-09-26T12:38:41Z</time>
      </trkpt>
      <trkpt lat="43.76337" lon="5.93097">
        <ele>341</ele>
        <time>2022-09-26T12:38:12Z</time>
      </trkpt>
      <trkpt lat="43.76343" lon="5.93089">
        <ele>342</ele>
        <time>2022-09-26T12:38:01Z</time>
      </trkpt>
      <trkpt lat="43.76346" lon="5.93066">
        <ele>341</ele>
        <time>2022-09-26T12:37:38Z</time>
      </trkpt>
      <trkpt lat="43.76357" lon="5.93035">
        <ele>342</ele>
        <time>2022-09-26T12:37:05Z</time>
      </trkpt>
      <trkpt lat="43.76355" lon="5.93016">
        <ele>341</ele>
        <time>2022-09-26T12:36:46Z</time>
      </trkpt>
      <trkpt lat="43.76347" lon="5.92999">
        <ele>339</ele>
        <time>2022-09-26T12:36:27Z</time>
      </trkpt>
      <trkpt lat="43.76332" lon="5.92991">
        <ele>338</ele>
        <time>2022-09-26T12:36:05Z</time>
      </trkpt>
      <trkpt lat="43.76295" lon="5.92996">
        <ele>337</ele>
        <time>2022-09-26T12:35:16Z</time>
      </trkpt>
      <trkpt lat="43.76296" lon="5.93002">
        <ele>337</ele>
        <time>2022-09-26T12:35:10Z</time>
      </trkpt>
      <trkpt lat="43.7628" lon="5.9301">
        <ele>338</ele>
        <time>2022-09-26T12:34:47Z</time>
      </trkpt>
      <trkpt lat="43.76275" lon="5.93026">
        <ele>342</ele>
        <time>2022-09-26T12:34:30Z</time>
      </trkpt>
      <trkpt lat="43.76263" lon="5.93031">
        <ele>344</ele>
        <time>2022-09-26T12:34:13Z</time>
      </trkpt>
      <trkpt lat="43.76257" lon="5.93029">
        <ele>344</ele>
        <time>2022-09-26T12:34:05Z</time>
      </trkpt>
      <trkpt lat="43.76242" lon="5.93037">
        <ele>349</ele>
        <time>2022-09-26T12:33:44Z</time>
      </trkpt>
      <trkpt lat="43.7622" lon="5.93032">
        <ele>353</ele>
        <time>2022-09-26T12:33:14Z</time>
      </trkpt>
      <trkpt lat="43.76209" lon="5.93015">
        <ele>351</ele>
        <time>2022-09-26T12:32:52Z</time>
      </trkpt>
      <trkpt lat="43.76193" lon="5.9295">
        <ele>346</ele>
        <time>2022-09-26T12:31:46Z</time>
      </trkpt>
      <trkpt lat="43.76197" lon="5.92937">
        <ele>332.2</ele>
        <time>2022-09-26T12:31:20Z</time>
      </trkpt>
      <trkpt lat="43.76204" lon="5.92932">
        <ele>330</ele>
      </trkpt>
      <trkpt lat="43.76209" lon="5.92914">
        <ele>340</ele>
        <time>2022-09-26T12:30:58Z</time>
      </trkpt>
      <trkpt lat="43.76203" lon="5.92897">
        <ele>331.4</ele>
        <time>2022-09-26T12:30:32Z</time>
      </trkpt>
      <trkpt lat="43.76216" lon="5.9283">
        <ele>337</ele>
        <time>2022-09-26T12:29:22Z</time>
      </trkpt>
      <trkpt lat="43.76213" lon="5.92806">
        <ele>337</ele>
        <time>2022-09-26T12:28:59Z</time>
      </trkpt>
      <trkpt lat="43.762" lon="5.92783">
        <ele>336</ele>
        <time>2022-09-26T12:28:31Z</time>
      </trkpt>
      <trkpt lat="43.76181" lon="5.92781">
        <ele>335</ele>
        <time>2022-09-26T12:28:05Z</time>
      </trkpt>
      <trkpt lat="43.76158" lon="5.9279">
        <ele>334</ele>
        <time>2022-09-26T12:27:33Z</time>
      </trkpt>
      <trkpt lat="43.76152" lon="5.9279">
        <ele>322.4</ele>
        <time>2022-09-26T12:27:23Z</time>
      </trkpt>
      <trkpt lat="43.76139" lon="5.92782">
        <ele>335</ele>
        <time>2022-09-26T12:27:01Z</time>
      </trkpt>
      <trkpt lat="43.76136" lon="5.92779">
        <ele>335</ele>
        <time>2022-09-26T12:25:31Z</time>
      </trkpt>
      <trkpt lat="43.76134" lon="5.92778">
        <ele>335</ele>
        <time>2022-09-26T12:25:15Z</time>
      </trkpt>
      <trkpt lat="43.76129" lon="5.92775">
        <ele>335</ele>
        <time>2022-09-26T12:25:08Z</time>
      </trkpt>
      <trkpt lat="43.7612" lon="5.92779">
        <ele>336</ele>
        <time>2022-09-26T12:24:55Z</time>
      </trkpt>
      <trkpt lat="43.76103" lon="5.92771">
        <ele>336</ele>
        <time>2022-09-26T12:24:31Z</time>
      </trkpt>
      <trkpt lat="43.76094" lon="5.9277">
        <ele>336</ele>
        <time>2022-09-26T12:24:19Z</time>
      </trkpt>
      <trkpt lat="43.76087" lon="5.92774">
        <ele>337</ele>
        <time>2022-09-26T12:24:09Z</time>
      </trkpt>
      <trkpt lat="43.7606" lon="5.92758">
        <ele>344</ele>
        <time>2022-09-26T12:23:30Z</time>
      </trkpt>
      <trkpt lat="43.76049" lon="5.92731">
        <ele>345</ele>
        <time>2022-09-26T12:23:00Z</time>
      </trkpt>
      <trkpt lat="43.76034" lon="5.92716">
        <ele>348</ele>
        <time>2022-09-26T12:22:35Z</time>
      </trkpt>
      <trkpt lat="43.76029" lon="5.92693">
        <ele>346</ele>
        <time>2022-09-26T12:22:12Z</time>
      </trkpt>
      <trkpt lat="43.76037" lon="5.92655">
        <ele>339</ele>
        <time>2022-09-26T12:21:34Z</time>
      </trkpt>
      <trkpt lat="43.76034" lon="5.92633">
        <ele>337</ele>
        <time>2022-09-26T12:21:13Z</time>
      </trkpt>
      <trkpt lat="43.76018" lon="5.92576">
        <ele>332</ele>
        <time>2022-09-26T12:20:14Z</time>
      </trkpt>
      <trkpt lat="43.75993" lon="5.92531">
        <ele>334</ele>
        <time>2022-09-26T12:19:19Z</time>
      </trkpt>
      <trkpt lat="43.75998" lon="5.92498">
        <ele>330</ele>
        <time>2022-09-26T12:18:46Z</time>
      </trkpt>
      <trkpt lat="43.75983" lon="5.92474">
        <ele>336</ele>
        <time>2022-09-26T12:18:16Z</time>
      </trkpt>
      <trkpt lat="43.75981" lon="5.92466">
        <ele>336</ele>
        <time>2022-09-26T12:18:08Z</time>
      </trkpt>
      <trkpt lat="43.75986" lon="5.92451">
        <ele>335</ele>
        <time>2022-09-26T12:17:52Z</time>
      </trkpt>
      <trkpt lat="43.7597" lon="5.92428">
        <ele>338</ele>
        <time>2022-09-26T12:17:21Z</time>
      </trkpt>
      <trkpt lat="43.75961" lon="5.92406">
        <ele>338</ele>
        <time>2022-09-26T12:16:57Z</time>
      </trkpt>
      <trkpt lat="43.75934" lon="5.92376">
        <ele>339</ele>
        <time>2022-09-26T12:16:10Z</time>
      </trkpt>
      <trkpt lat="43.75927" lon="5.92362">
        <ele>337</ele>
        <time>2022-09-26T12:15:54Z</time>
      </trkpt>
      <trkpt lat="43.75931" lon="5.92351">
        <ele>336</ele>
        <time>2022-09-26T12:15:42Z</time>
      </trkpt>
      <trkpt lat="43.75934" lon="5.92353">
        <ele>336</ele>
        <time>2022-09-26T12:15:38Z</time>
      </trkpt>
      <trkpt lat="43.75931" lon="5.92347">
        <ele>335</ele>
        <time>2022-09-26T12:15:31Z</time>
      </trkpt>
      <trkpt lat="43.75935" lon="5.92341">
        <ele>335</ele>
        <time>2022-09-26T12:15:23Z</time>
      </trkpt>
      <trkpt lat="43.7593" lon="5.92331">
        <ele>334</ele>
        <time>2022-09-26T12:15:11Z</time>
      </trkpt>
      <trkpt lat="43.75933" lon="5.92315">
        <ele>332</ele>
        <time>2022-09-26T12:14:55Z</time>
      </trkpt>
      <trkpt lat="43.75929" lon="5.92298">
        <ele>331</ele>
        <time>2022-09-26T12:14:38Z</time>
      </trkpt>
      <trkpt lat="43.75917" lon="5.92279">
        <ele>329</ele>
        <time>2022-09-26T12:14:13Z</time>
      </trkpt>
      <trkpt lat="43.75913" lon="5.92259">
        <ele>327</ele>
        <time>2022-09-26T12:13:53Z</time>
      </trkpt>
      <trkpt lat="43.75901" lon="5.92237">
        <ele>326</ele>
        <time>2022-09-26T12:13:27Z</time>
      </trkpt>
      <trkpt lat="43.75906" lon="5.92222">
        <ele>326</ele>
        <time>2022-09-26T12:13:11Z</time>
      </trkpt>
      <trkpt lat="43.75906" lon="5.9219">
        <ele>326</ele>
        <time>2022-09-26T12:12:40Z</time>
      </trkpt>
      <trkpt lat="43.759" lon="5.92165">
        <ele>326</ele>
        <time>2022-09-26T12:12:15Z</time>
      </trkpt>
      <trkpt lat="43.75895" lon="5.92154">
        <ele>326</ele>
        <time>2022-09-26T12:12:02Z</time>
      </trkpt>
      <trkpt lat="43.75889" lon="5.92152">
        <ele>326</ele>
        <time>2022-09-26T12:11:54Z</time>
      </trkpt>
      <trkpt lat="43.75875" lon="5.92136">
        <ele>326</ele>
        <time>2022-09-26T12:11:30Z</time>
      </trkpt>
      <trkpt lat="43.75857" lon="5.92135">
        <ele>326</ele>
        <time>2022-09-26T12:11:06Z</time>
      </trkpt>
      <trkpt lat="43.75845" lon="5.92139">
        <ele>325</ele>
        <time>2022-09-26T12:10:49Z</time>
      </trkpt>
      <trkpt lat="43.75837" lon="5.92135">
        <ele>325</ele>
        <time>2022-09-26T12:10:38Z</time>
      </trkpt>
      <trkpt lat="43.75824" lon="5.92118">
        <ele>316.9</ele>
        <extensions>
          <visugpx:TrkExtension xmlns:visugpx="https://www.visugpx.com/editgpx/">
            <visugpx:node>1</visugpx:node>
            </visugpx:TrkExtension>
        </extensions>
      </trkpt>
      <trkpt lat="43.75823" lon="5.92113">
        <ele>316.3</ele>
      </trkpt>
      <trkpt lat="43.75812" lon="5.9211">
        <ele>314.1</ele>
      </trkpt>
      <trkpt lat="43.75803" lon="5.92138">
        <ele>314</ele>
      </trkpt>
      <trkpt lat="43.75796" lon="5.92148">
        <ele>314.4</ele>
      </trkpt>
      <trkpt lat="43.75794" lon="5.92159">
        <ele>314.8</ele>
      </trkpt>
      <trkpt lat="43.75795" lon="5.92186">
        <ele>314.4</ele>
      </trkpt>
      <trkpt lat="43.75798" lon="5.92203">
        <ele>313.7</ele>
      </trkpt>
      <trkpt lat="43.75805" lon="5.92224">
        <ele>312.9</ele>
      </trkpt>
      <trkpt lat="43.75806" lon="5.92235">
        <ele>312.7</ele>
      </trkpt>
      <trkpt lat="43.75802" lon="5.92244">
        <ele>312</ele>
      </trkpt>
      <trkpt lat="43.75799" lon="5.92285">
        <ele>314.4</ele>
      </trkpt>
      <trkpt lat="43.75788" lon="5.92295">
        <ele>313.1</ele>
      </trkpt>
      <trkpt lat="43.75786" lon="5.92285">
        <ele>311.7</ele>
      </trkpt>
      <trkpt lat="43.75781" lon="5.92267">
        <ele>310.4</ele>
      </trkpt>
      <trkpt lat="43.75774" lon="5.92247">
        <ele>309.9</ele>
      </trkpt>
      <trkpt lat="43.75773" lon="5.92243">
        <ele>310.2</ele>
      </trkpt>
      <trkpt lat="43.75759" lon="5.92238">
        <ele>308.7</ele>
      </trkpt>
      <trkpt lat="43.75747" lon="5.92204">
        <ele>310.9</ele>
      </trkpt>
      <trkpt lat="43.75709" lon="5.92128">
        <ele>309.3</ele>
      </trkpt>
      <trkpt lat="43.75683" lon="5.92048">
        <ele>310.2</ele>
      </trkpt>
      <trkpt lat="43.75666" lon="5.92025">
        <ele>307.3</ele>
      </trkpt>
      <trkpt lat="43.75653" lon="5.91996">
        <ele>308.6</ele>
      </trkpt>
      <trkpt lat="43.75656" lon="5.91981">
        <ele>311.7</ele>
      </trkpt>
      <trkpt lat="43.75656" lon="5.91967">
        <ele>313.5</ele>
      </trkpt>
      <trkpt lat="43.75649" lon="5.91947">
        <ele>312.5</ele>
      </trkpt>
      <trkpt lat="43.75631" lon="5.91924">
        <ele>310.9</ele>
      </trkpt>
      <trkpt lat="43.75615" lon="5.91904">
        <ele>310.5</ele>
      </trkpt>
      <trkpt lat="43.7561" lon="5.91896">
        <ele>310.3</ele>
      </trkpt>
      <trkpt lat="43.75594" lon="5.91877">
        <ele>309.1</ele>
      </trkpt>
      <trkpt lat="43.75574" lon="5.91843">
        <ele>309.5</ele>
      </trkpt>
      <trkpt lat="43.75526" lon="5.91776">
        <ele>309.8</ele>
      </trkpt>
      <trkpt lat="43.75516" lon="5.91755">
        <ele>309.1</ele>
      </trkpt>
      <trkpt lat="43.75502" lon="5.91739">
        <ele>308.9</ele>
      </trkpt>
      <trkpt lat="43.75481" lon="5.91704">
        <ele>308.8</ele>
      </trkpt>
      <trkpt lat="43.75468" lon="5.91679">
        <ele>309.1</ele>
      </trkpt>
      <trkpt lat="43.75435" lon="5.91594">
        <ele>308.7</ele>
      </trkpt>
      <trkpt lat="43.75418" lon="5.91556">
        <ele>309</ele>
      </trkpt>
      <trkpt lat="43.75409" lon="5.91534">
        <ele>307.8</ele>
      </trkpt>
      <trkpt lat="43.75387" lon="5.91473">
        <ele>308.6</ele>
      </trkpt>
      <trkpt lat="43.75365" lon="5.91357">
        <ele>307.4</ele>
      </trkpt>
      <trkpt lat="43.75357" lon="5.9128">
        <ele>307.4</ele>
      </trkpt>
      <trkpt lat="43.75362" lon="5.91237">
        <ele>307.5</ele>
      </trkpt>
      <trkpt lat="43.75362" lon="5.91171">
        <ele>308</ele>
      </trkpt>
      <trkpt lat="43.75364" lon="5.91105">
        <ele>307.1</ele>
      </trkpt>
      <trkpt lat="43.75368" lon="5.91019">
        <ele>306.8</ele>
      </trkpt>
      <trkpt lat="43.75373" lon="5.90972">
        <ele>306.4</ele>
      </trkpt>
      <trkpt lat="43.7538" lon="5.90946">
        <ele>306.4</ele>
      </trkpt>
      <trkpt lat="43.75416" lon="5.90838">
        <ele>306.1</ele>
      </trkpt>
      <trkpt lat="43.7542" lon="5.90821">
        <ele>306.1</ele>
      </trkpt>
      <trkpt lat="43.75425" lon="5.9079">
        <ele>306.1</ele>
      </trkpt>
      <trkpt lat="43.75427" lon="5.90788">
        <ele>306.1</ele>
      </trkpt>
      <trkpt lat="43.75426" lon="5.9078">
        <ele>306</ele>
      </trkpt>
      <trkpt lat="43.75427" lon="5.90765">
        <ele>305.7</ele>
      </trkpt>
      <trkpt lat="43.75433" lon="5.90735">
        <ele>305.6</ele>
      </trkpt>
      <trkpt lat="43.75439" lon="5.9061">
        <ele>304.6</ele>
      </trkpt>
      <trkpt lat="43.75444" lon="5.90577">
        <ele>305</ele>
      </trkpt>
      <trkpt lat="43.75454" lon="5.90514">
        <ele>305</ele>
      </trkpt>
      <trkpt lat="43.75454" lon="5.90498">
        <ele>305</ele>
      </trkpt>
      <trkpt lat="43.75445" lon="5.90434">
        <ele>304</ele>
      </trkpt>
      <trkpt lat="43.75444" lon="5.90409">
        <ele>304</ele>
      </trkpt>
      <trkpt lat="43.7544" lon="5.90324">
        <ele>303.8</ele>
      </trkpt>
      <trkpt lat="43.75436" lon="5.90276">
        <ele>305.2</ele>
      </trkpt>
      <trkpt lat="43.75432" lon="5.90252">
        <ele>306.5</ele>
      </trkpt>
      <trkpt lat="43.75409" lon="5.9018">
        <ele>306.3</ele>
      </trkpt>
      <trkpt lat="43.75396" lon="5.90055">
        <ele>305.3</ele>
      </trkpt>
      <trkpt lat="43.75376" lon="5.89992">
        <ele>305.6</ele>
      </trkpt>
      <trkpt lat="43.75372" lon="5.89972">
        <ele>304.4</ele>
      </trkpt>
      <trkpt lat="43.75366" lon="5.899">
        <ele>303.6</ele>
      </trkpt>
      <trkpt lat="43.75364" lon="5.89872">
        <ele>303.2</ele>
      </trkpt>
      <trkpt lat="43.75364" lon="5.89835">
        <ele>303.2</ele>
      </trkpt>
      <trkpt lat="43.75367" lon="5.89749">
        <ele>303.2</ele>
      </trkpt>
      <trkpt lat="43.7537" lon="5.89716">
        <ele>303</ele>
      </trkpt>
      <trkpt lat="43.75371" lon="5.89691">
        <ele>303</ele>
      </trkpt>
      <trkpt lat="43.75375" lon="5.89641">
        <ele>303</ele>
      </trkpt>
      <trkpt lat="43.75376" lon="5.89632">
        <ele>302.8</ele>
      </trkpt>
      <trkpt lat="43.75378" lon="5.89607">
        <ele>302.2</ele>
      </trkpt>
      <trkpt lat="43.7538" lon="5.89552">
        <ele>304</ele>
        <time>2022-09-26T11:24:23Z</time>
      </trkpt>
      <trkpt lat="43.75394" lon="5.89541">
        <ele>305</ele>
        <time>2022-09-26T11:24:01Z</time>
      </trkpt>
      <trkpt lat="43.75442" lon="5.89525">
        <ele>308</ele>
        <time>2022-09-26T11:22:56Z</time>
      </trkpt>
      <trkpt lat="43.75477" lon="5.89518">
        <ele>313</ele>
        <time>2022-09-26T11:22:08Z</time>
      </trkpt>
      <trkpt lat="43.75482" lon="5.89512">
        <ele>313</ele>
        <time>2022-09-26T11:22:00Z</time>
      </trkpt>
      <trkpt lat="43.75483" lon="5.89496">
        <ele>313</ele>
        <time>2022-09-26T11:21:44Z</time>
      </trkpt>
      <trkpt lat="43.75497" lon="5.8948">
        <ele>313</ele>
        <time>2022-09-26T11:21:20Z</time>
      </trkpt>
      <trkpt lat="43.75505" lon="5.8945">
        <ele>313</ele>
        <time>2022-09-26T11:20:49Z</time>
      </trkpt>
      <trkpt lat="43.75512" lon="5.89443">
        <ele>313</ele>
        <time>2022-09-26T11:20:38Z</time>
      </trkpt>
      <trkpt lat="43.75521" lon="5.89444">
        <ele>314</ele>
        <time>2022-09-26T11:20:25Z</time>
      </trkpt>
      <trkpt lat="43.75529" lon="5.89456">
        <ele>315</ele>
        <time>2022-09-26T11:20:10Z</time>
      </trkpt>
      <trkpt lat="43.75544" lon="5.89463">
        <ele>317</ele>
        <time>2022-09-26T11:19:49Z</time>
      </trkpt>
      <trkpt lat="43.75569" lon="5.89452">
        <ele>319</ele>
        <time>2022-09-26T11:19:14Z</time>
      </trkpt>
      <trkpt lat="43.75593" lon="5.8939">
        <ele>318</ele>
        <time>2022-09-26T11:18:06Z</time>
      </trkpt>
      <trkpt lat="43.75598" lon="5.89392">
        <ele>319</ele>
        <time>2022-09-26T11:17:59Z</time>
      </trkpt>
      <trkpt lat="43.75602" lon="5.89403">
        <ele>320</ele>
        <time>2022-09-26T11:17:47Z</time>
      </trkpt>
      <trkpt lat="43.75618" lon="5.8941">
        <ele>322</ele>
        <time>2022-09-26T11:17:25Z</time>
      </trkpt>
      <trkpt lat="43.75656" lon="5.89406">
        <ele>325</ele>
        <time>2022-09-26T11:16:34Z</time>
      </trkpt>
      <trkpt lat="43.75672" lon="5.89408">
        <ele>327</ele>
        <time>2022-09-26T11:16:12Z</time>
      </trkpt>
      <trkpt lat="43.75737" lon="5.89393">
        <ele>328</ele>
        <time>2022-09-26T11:14:44Z</time>
      </trkpt>
      <trkpt lat="43.7576" lon="5.89362">
        <ele>325</ele>
        <time>2022-09-26T11:14:02Z</time>
      </trkpt>
      <trkpt lat="43.7578" lon="5.89346">
        <ele>324</ele>
        <time>2022-09-26T11:13:31Z</time>
      </trkpt>
      <trkpt lat="43.7579" lon="5.89348">
        <ele>325</ele>
        <time>2022-09-26T11:13:17Z</time>
      </trkpt>
      <trkpt lat="43.75791" lon="5.89342">
        <ele>324</ele>
        <time>2022-09-26T11:13:11Z</time>
      </trkpt>
      <trkpt lat="43.75798" lon="5.89347">
        <ele>325</ele>
        <time>2022-09-26T11:13:01Z</time>
      </trkpt>
      <trkpt lat="43.75815" lon="5.89331">
        <ele>324</ele>
        <time>2022-09-26T11:12:33Z</time>
      </trkpt>
      <trkpt lat="43.75846" lon="5.89318">
        <ele>325</ele>
        <time>2022-09-26T11:11:50Z</time>
      </trkpt>
      <trkpt lat="43.75854" lon="5.89308">
        <ele>324</ele>
        <time>2022-09-26T11:11:36Z</time>
      </trkpt>
      <trkpt lat="43.75868" lon="5.89305">
        <ele>325</ele>
        <time>2022-09-26T11:11:17Z</time>
      </trkpt>
      <trkpt lat="43.75898" lon="5.8929">
        <ele>325</ele>
        <time>2022-09-26T11:10:34Z</time>
      </trkpt>
      <trkpt lat="43.75904" lon="5.89295">
        <ele>326</ele>
        <time>2022-09-26T11:10:25Z</time>
      </trkpt>
      <trkpt lat="43.75899" lon="5.89299">
        <ele>326</ele>
        <time>2022-09-26T11:10:17Z</time>
      </trkpt>
      <trkpt lat="43.75908" lon="5.89301">
        <ele>327</ele>
        <time>2022-09-26T11:10:05Z</time>
      </trkpt>
      <trkpt lat="43.75932" lon="5.89289">
        <ele>326</ele>
        <time>2022-09-26T11:09:31Z</time>
      </trkpt>
      <trkpt lat="43.75944" lon="5.89292">
        <ele>327</ele>
        <time>2022-09-26T11:09:15Z</time>
      </trkpt>
      <trkpt lat="43.75954" lon="5.89282">
        <ele>326</ele>
        <time>2022-09-26T11:08:58Z</time>
      </trkpt>
      <trkpt lat="43.75971" lon="5.89278">
        <ele>326</ele>
        <time>2022-09-26T11:08:35Z</time>
      </trkpt>
      <trkpt lat="43.75996" lon="5.89262">
        <ele>325</ele>
        <time>2022-09-26T11:07:58Z</time>
      </trkpt>
      <trkpt lat="43.76008" lon="5.89267">
        <ele>326</ele>
        <time>2022-09-26T11:07:42Z</time>
      </trkpt>
      <trkpt lat="43.7602" lon="5.89264">
        <ele>326</ele>
        <time>2022-09-26T11:07:25Z</time>
      </trkpt>
      <trkpt lat="43.76029" lon="5.89268">
        <ele>327</ele>
        <time>2022-09-26T11:07:13Z</time>
      </trkpt>
      <trkpt lat="43.76045" lon="5.89268">
        <ele>327</ele>
        <time>2022-09-26T11:06:52Z</time>
      </trkpt>
      <trkpt lat="43.76052" lon="5.89253">
        <ele>325</ele>
        <time>2022-09-26T11:06:34Z</time>
      </trkpt>
      <trkpt lat="43.76058" lon="5.89249">
        <ele>324</ele>
        <time>2022-09-26T11:06:25Z</time>
      </trkpt>
      <trkpt lat="43.76076" lon="5.89245">
        <ele>325</ele>
        <time>2022-09-26T11:06:01Z</time>
      </trkpt>
      <trkpt lat="43.76104" lon="5.8923">
        <ele>325</ele>
        <time>2022-09-26T11:05:21Z</time>
      </trkpt>
      <trkpt lat="43.76125" lon="5.89238">
        <ele>325</ele>
        <time>2022-09-26T11:04:52Z</time>
      </trkpt>
      <trkpt lat="43.76142" lon="5.89234">
        <ele>326</ele>
        <time>2022-09-26T11:04:29Z</time>
      </trkpt>
      <trkpt lat="43.76201" lon="5.89261">
        <ele>329</ele>
        <time>2022-09-26T11:03:06Z</time>
      </trkpt>
      <trkpt lat="43.76239" lon="5.89297">
        <ele>335</ele>
        <time>2022-09-26T11:02:05Z</time>
      </trkpt>
      <trkpt lat="43.76271" lon="5.89307">
        <ele>335</ele>
        <time>2022-09-26T11:01:21Z</time>
      </trkpt>
      <trkpt lat="43.76289" lon="5.89305">
        <ele>333</ele>
        <time>2022-09-26T11:00:57Z</time>
      </trkpt>
      <trkpt lat="43.76301" lon="5.89309">
        <ele>333</ele>
        <time>2022-09-26T11:00:40Z</time>
      </trkpt>
      <trkpt lat="43.76356" lon="5.89344">
        <ele>334</ele>
        <time>2022-09-26T10:59:19Z</time>
      </trkpt>
      <trkpt lat="43.76377" lon="5.89362">
        <ele>336</ele>
        <time>2022-09-26T10:58:47Z</time>
      </trkpt>
      <trkpt lat="43.76389" lon="5.89366">
        <ele>336</ele>
        <time>2022-09-26T10:58:30Z</time>
      </trkpt>
      <trkpt lat="43.76395" lon="5.89376">
        <ele>337</ele>
        <time>2022-09-26T10:58:18Z</time>
      </trkpt>
      <trkpt lat="43.76381" lon="5.89402">
        <ele>341</ele>
        <time>2022-09-26T10:57:46Z</time>
      </trkpt>
      <trkpt lat="43.76383" lon="5.89405">
        <ele>342</ele>
        <time>2022-09-26T10:57:42Z</time>
      </trkpt>
      <trkpt lat="43.76407" lon="5.89399">
        <ele>340</ele>
        <time>2022-09-26T10:57:10Z</time>
      </trkpt>
      <trkpt lat="43.76425" lon="5.89404">
        <ele>339</ele>
        <time>2022-09-26T10:56:45Z</time>
      </trkpt>
      <trkpt lat="43.76435" lon="5.89398">
        <ele>338</ele>
        <time>2022-09-26T10:56:31Z</time>
      </trkpt>
      <trkpt lat="43.76486" lon="5.89419">
        <ele>337</ele>
        <time>2022-09-26T10:55:20Z</time>
      </trkpt>
      <trkpt lat="43.76498" lon="5.89429">
        <ele>337</ele>
        <time>2022-09-26T10:55:01Z</time>
      </trkpt>
      <trkpt lat="43.76524" lon="5.89473">
        <ele>340</ele>
        <time>2022-09-26T10:54:06Z</time>
      </trkpt>
      <trkpt lat="43.76538" lon="5.89491">
        <ele>340</ele>
        <time>2022-09-26T10:53:41Z</time>
      </trkpt>
      <trkpt lat="43.76556" lon="5.89505">
        <ele>340</ele>
        <time>2022-09-26T10:53:13Z</time>
      </trkpt>
      <trkpt lat="43.76581" lon="5.89537">
        <ele>344</ele>
        <time>2022-09-26T10:52:28Z</time>
      </trkpt>
      <trkpt lat="43.766" lon="5.89573">
        <ele>348</ele>
        <time>2022-09-26T10:51:45Z</time>
      </trkpt>
      <trkpt lat="43.7662" lon="5.89587">
        <ele>348</ele>
        <time>2022-09-26T10:51:15Z</time>
      </trkpt>
      <trkpt lat="43.76635" lon="5.89605">
        <ele>349</ele>
        <time>2022-09-26T10:50:48Z</time>
      </trkpt>
      <trkpt lat="43.76664" lon="5.89661">
        <ele>353</ele>
        <time>2022-09-26T10:49:42Z</time>
      </trkpt>
      <trkpt lat="43.76667" lon="5.89683">
        <ele>354</ele>
        <time>2022-09-26T10:49:20Z</time>
      </trkpt>
      <trkpt lat="43.76662" lon="5.89709">
        <ele>355</ele>
        <time>2022-09-26T10:48:54Z</time>
      </trkpt>
      <trkpt lat="43.76673" lon="5.89756">
        <ele>355</ele>
        <time>2022-09-26T10:48:07Z</time>
      </trkpt>
      <trkpt lat="43.76712" lon="5.89805">
        <ele>351</ele>
        <time>2022-09-26T10:46:57Z</time>
      </trkpt>
      <trkpt lat="43.76716" lon="5.89816">
        <ele>351</ele>
        <time>2022-09-26T10:46:45Z</time>
      </trkpt>
      <trkpt lat="43.76719" lon="5.89817">
        <ele>351</ele>
        <time>2022-09-26T10:46:41Z</time>
      </trkpt>
      <trkpt lat="43.76729" lon="5.89807">
        <ele>351</ele>
        <time>2022-09-26T10:46:24Z</time>
      </trkpt>
      <trkpt lat="43.76737" lon="5.8981">
        <ele>350</ele>
        <time>2022-09-26T10:46:13Z</time>
      </trkpt>
      <trkpt lat="43.76751" lon="5.89846">
        <ele>352</ele>
        <time>2022-09-26T10:45:34Z</time>
      </trkpt>
      <trkpt lat="43.76764" lon="5.89862">
        <ele>352</ele>
        <time>2022-09-26T10:45:10Z</time>
      </trkpt>
      <trkpt lat="43.76768" lon="5.89881">
        <ele>353</ele>
        <time>2022-09-26T10:44:51Z</time>
      </trkpt>
      <trkpt lat="43.76779" lon="5.89888">
        <ele>353</ele>
        <time>2022-09-26T10:44:35Z</time>
      </trkpt>
      <trkpt lat="43.76783" lon="5.89902">
        <ele>354</ele>
        <time>2022-09-26T10:44:21Z</time>
      </trkpt>
      <trkpt lat="43.76785" lon="5.89893">
        <ele>354</ele>
        <time>2022-09-26T10:44:12Z</time>
      </trkpt>
      <trkpt lat="43.76793" lon="5.89893">
        <ele>353</ele>
        <time>2022-09-26T10:44:01Z</time>
      </trkpt>
      <trkpt lat="43.76794" lon="5.89876">
        <ele>352</ele>
        <time>2022-09-26T10:43:45Z</time>
      </trkpt>
      <trkpt lat="43.76846" lon="5.89921">
        <ele>355</ele>
        <time>2022-09-26T10:42:23Z</time>
      </trkpt>
      <trkpt lat="43.769" lon="5.89954">
        <ele>359</ele>
        <time>2022-09-26T10:41:04Z</time>
      </trkpt>
      <trkpt lat="43.76931" lon="5.89982">
        <ele>362</ele>
        <time>2022-09-26T10:40:15Z</time>
      </trkpt>
      <trkpt lat="43.76952" lon="5.89991">
        <ele>361</ele>
        <time>2022-09-26T10:39:45Z</time>
      </trkpt>
      <trkpt lat="43.7696" lon="5.89996">
        <ele>360</ele>
        <time>2022-09-26T10:39:25Z</time>
      </trkpt>
      <trkpt lat="43.76964" lon="5.89998">
        <ele>360</ele>
        <time>2022-09-26T10:39:04Z</time>
      </trkpt>
      <trkpt lat="43.76968" lon="5.89995">
        <ele>359</ele>
        <time>2022-09-26T10:38:58Z</time>
      </trkpt>
      <trkpt lat="43.76979" lon="5.89997">
        <ele>358</ele>
        <time>2022-09-26T10:38:43Z</time>
      </trkpt>
      <trkpt lat="43.76994" lon="5.89981">
        <ele>355</ele>
        <time>2022-09-26T10:38:18Z</time>
      </trkpt>
      <trkpt lat="43.77009" lon="5.8998">
        <ele>354</ele>
        <time>2022-09-26T10:37:58Z</time>
        <extensions>
          <visugpx:TrkExtension xmlns:visugpx="https://www.visugpx.com/editgpx/">
            <visugpx:node>2</visugpx:node>
            </visugpx:TrkExtension>
        </extensions>
      </trkpt>
    </trkseg>
  </trk>
</gpx>